Time;durP1;ratioP1;P1;durP2;ratioP2;P2;SDS_P1;SDS_P2;PMS_P1;PMS_P2;Temp;Humidity;BMP_temperature;BMP_pressure;BME280_temperature;BME280_humidity;BME280_pressure;Samples;Min_cycle;Max_cycle;Signal;HPM_P1;HPM_P2
2022/06/03 00:01:58;;;;;;;3.23;1.90;;;15.40;99.90;;;;;;4929781;29;20580;-58
2022/06/03 00:04:45;;;;;;;3.03;1.83;;;15.30;99.90;;;;;;5002925;28;20625;-58
2022/06/03 00:07:31;;;;;;;3.13;2.10;;;15.30;99.90;;;;;;5014329;28;20198;-59
2022/06/03 00:10:28;;;;;;;3.80;2.30;;;15.30;99.90;;;;;;5013774;28;20203;-59
2022/06/03 00:13:01;;;;;;;4.07;1.80;;;15.40;99.90;;;;;;5012891;28;20210;-58
2022/06/03 00:15:47;;;;;;;2.30;1.80;;;15.40;99.90;;;;;;5012801;28;20231;-58
2022/06/03 00:18:37;;;;;;;1.83;1.70;;;15.50;99.90;;;;;;5013528;28;20254;-58
2022/06/03 00:21:08;;;;;;;2.30;1.87;;;15.60;99.90;;;;;;5013297;28;20647;-58
2022/06/03 00:24:02;;;;;;;4.20;1.90;;;15.70;99.90;;;;;;5013261;28;20697;-59
2022/06/03 00:26:50;;;;;;;2.73;2.07;;;15.70;99.90;;;;;;5012718;28;20277;-59
2022/06/03 00:29:32;;;;;;;3.47;1.90;;;15.80;99.90;;;;;;5013362;28;20580;-59
2022/06/03 00:32:25;;;;;;;2.20;1.80;;;16.00;99.90;;;;;;5012968;28;20660;-59
2022/06/03 00:35:09;;;;;;;4.03;1.67;;;16.10;99.90;;;;;;5009284;28;20231;-58
2022/06/03 00:37:44;;;;;;;4.53;1.90;;;16.20;99.90;;;;;;5012513;28;20211;-58
2022/06/03 00:40:28;;;;;;;2.50;2.03;;;16.20;99.90;;;;;;5012522;28;20211;-58
2022/06/03 00:43:25;;;;;;;1.93;1.77;;;16.20;99.90;;;;;;5012548;28;20229;-57
2022/06/03 00:46:05;;;;;;;3.13;2.10;;;16.10;99.90;;;;;;5012398;28;20242;-58
2022/06/03 00:48:40;;;;;;;2.33;1.83;;;16.10;99.90;;;;;;5012307;28;20202;-58
2022/06/03 00:51:32;;;;;;;1.90;1.80;;;16.10;99.90;;;;;;5012442;28;20210;-58
2022/06/03 00:54:21;;;;;;;2.67;1.97;;;15.90;99.90;;;;;;5009131;28;20218;-58
2022/06/03 00:57:33;;;;;;;2.87;1.80;;;15.70;99.90;;;;;;5012073;28;20718;-58
2022/06/03 01:00:08;;;;;;;3.10;1.87;;;15.60;99.90;;;;;;5012437;28;20225;-58
2022/06/03 01:03:11;;;;;;;2.63;2.40;;;15.60;99.90;;;;;;5011991;28;20206;-58
2022/06/03 01:05:51;;;;;;;2.30;1.90;;;15.60;99.90;;;;;;5009293;28;20285;-58
2022/06/03 01:08:32;;;;;;;2.90;1.93;;;15.50;99.90;;;;;;5012464;28;20206;-58
2022/06/03 01:11:15;;;;;;;2.73;1.83;;;15.40;99.90;;;;;;5012180;28;20238;-58
2022/06/03 01:14:00;;;;;;;2.63;2.00;;;15.30;99.90;;;;;;5012204;28;20241;-59
2022/06/03 01:16:49;;;;;;;3.63;2.00;;;15.20;99.90;;;;;;5012284;28;20579;-58
2022/06/03 01:19:32;;;;;;;2.40;2.10;;;15.10;99.90;;;;;;5012207;28;20222;-58
2022/06/03 01:22:13;;;;;;;2.40;1.90;;;15.10;99.90;;;;;;5011972;28;20215;-58
2022/06/03 01:24:57;;;;;;;3.00;2.10;;;15.10;99.90;;;;;;5011948;28;20210;-58
2022/06/03 01:28:05;;;;;;;5.27;1.97;;;15.10;99.90;;;;;;5012164;28;20211;-58
2022/06/03 01:30:56;;;;;;;3.33;2.03;;;15.10;99.90;;;;;;5012133;28;20675;-58
2022/06/03 01:33:43;;;;;;;2.87;2.17;;;15.10;99.90;;;;;;5012242;28;20206;-58
2022/06/03 01:36:34;;;;;;;6.30;2.33;;;15.20;99.90;;;;;;5011874;28;20227;-58
2022/06/03 01:39:38;;;;;;;3.43;2.10;;;15.20;99.90;;;;;;5012288;28;20590;-58
2022/06/03 01:42:42;;;;;;;3.90;1.90;;;15.20;99.90;;;;;;5015616;28;20678;-58
2022/06/03 01:45:28;;;;;;;4.57;2.07;;;15.20;99.90;;;;;;5016062;28;20226;-58
2022/06/03 01:48:27;;;;;;;3.53;2.03;;;15.20;99.90;;;;;;5015881;28;20211;-58
2022/06/03 01:51:23;;;;;;;2.10;1.90;;;15.20;99.90;;;;;;4972539;28;20218;-59
2022/06/03 01:54:34;;;;;;;3.10;2.23;;;15.20;99.90;;;;;;4986818;28;20211;-58
2022/06/03 01:57:34;;;;;;;2.80;2.00;;;15.10;99.90;;;;;;5015654;28;20258;-59
2022/06/03 02:00:20;;;;;;;3.53;2.17;;;15.10;99.90;;;;;;5015317;28;20710;-58
2022/06/03 02:03:25;;;;;;;3.10;2.13;;;15.20;99.90;;;;;;5015144;28;20206;-60
2022/06/03 02:06:43;;;;;;;4.10;2.30;;;15.10;99.90;;;;;;5015038;28;20230;-58
2022/06/03 02:09:36;;;;;;;3.83;2.20;;;15.00;99.90;;;;;;5009979;28;20207;-58
2022/06/03 02:12:37;;;;;;;2.97;2.37;;;14.90;99.90;;;;;;5014753;28;20242;-57
2022/06/03 02:15:28;;;;;;;3.10;2.43;;;14.90;99.90;;;;;;5015118;28;20231;-57
2022/06/03 02:18:49;;;;;;;2.73;2.10;;;14.80;99.90;;;;;;5014853;28;20207;-58
2022/06/03 02:21:46;;;;;;;4.13;2.40;;;14.70;99.90;;;;;;5015191;28;20210;-57
2022/06/03 02:24:48;;;;;;;2.63;2.10;;;14.70;99.90;;;;;;5015409;28;20206;-57
2022/06/03 02:27:40;;;;;;;3.70;2.13;;;14.60;99.90;;;;;;5015159;28;20198;-59
2022/06/03 02:30:36;;;;;;;3.43;2.13;;;14.60;99.90;;;;;;5014982;28;20203;-58
2022/06/03 02:33:58;;;;;;;3.13;2.10;;;14.50;99.90;;;;;;5014773;28;20642;-58
2022/06/03 02:37:03;;;;;;;2.83;2.20;;;14.50;99.90;;;;;;5014814;28;20230;-58
2022/06/03 02:39:55;;;;;;;2.60;2.40;;;14.60;99.90;;;;;;5014851;28;20233;-58
2022/06/03 02:42:45;;;;;;;3.53;2.30;;;14.50;99.90;;;;;;5014647;28;20226;-59
2022/06/03 02:45:28;;;;;;;3.97;2.40;;;14.50;99.90;;;;;;5014768;28;20233;-57
2022/06/03 02:48:28;;;;;;;3.17;2.13;;;14.50;99.90;;;;;;5015771;28;20211;-58
2022/06/03 02:51:19;;;;;;;3.20;2.30;;;14.50;99.90;;;;;;5014969;28;20209;-58
2022/06/03 02:54:19;;;;;;;4.40;2.60;;;14.40;99.90;;;;;;5014849;28;20870;-58
2022/06/03 02:56:59;;;;;;;3.53;2.37;;;14.30;99.90;;;;;;5014433;28;20227;-58
2022/06/03 02:59:47;;;;;;;2.77;2.40;;;14.30;99.90;;;;;;5014225;28;20242;-58
2022/06/03 03:02:49;;;;;;;4.07;2.10;;;14.30;99.90;;;;;;5014055;28;20685;-59
2022/06/03 03:05:28;;;;;;;2.23;2.03;;;14.30;99.90;;;;;;5014473;28;20296;-58
2022/06/03 03:08:24;;;;;;;5.93;2.10;;;14.30;99.90;;;;;;5014319;28;20206;-58
2022/06/03 03:11:07;;;;;;;5.13;2.40;;;14.40;99.90;;;;;;5005667;28;20203;-59
2022/06/03 03:14:01;;;;;;;3.53;2.67;;;14.40;99.90;;;;;;5014268;28;20211;-59
2022/06/03 03:16:53;;;;;;;4.37;2.40;;;14.50;99.90;;;;;;5013743;28;20238;-58
2022/06/03 03:19:54;;;;;;;5.13;2.60;;;14.50;99.90;;;;;;5013963;28;20242;-58
2022/06/03 03:22:48;;;;;;;3.60;2.60;;;14.50;99.90;;;;;;5013774;28;20206;-58
2022/06/03 03:25:38;;;;;;;3.47;2.47;;;14.40;99.90;;;;;;5013657;28;20713;-58
2022/06/03 03:28:35;;;;;;;2.87;2.30;;;14.30;99.90;;;;;;5013697;28;20675;-59
2022/06/03 03:31:28;;;;;;;3.43;2.40;;;14.20;99.90;;;;;;5013608;28;20210;-58
2022/06/03 03:34:17;;;;;;;6.30;2.20;;;14.10;99.90;;;;;;5013992;28;20239;-60
2022/06/03 03:37:28;;;;;;;4.77;2.47;;;14.20;99.90;;;;;;5013797;28;20296;-58
2022/06/03 03:40:49;;;;;;;2.60;2.20;;;14.20;99.90;;;;;;5013530;28;20230;-58
2022/06/03 03:43:58;;;;;;;5.50;2.33;;;14.10;99.90;;;;;;5013374;28;20286;-59
2022/06/03 03:47:11;;;;;;;3.87;2.27;;;14.20;99.90;;;;;;5014070;28;20911;-59
2022/06/03 03:50:19;;;;;;;3.57;2.57;;;14.20;99.90;;;;;;5013614;28;20226;-57
2022/06/03 03:53:41;;;;;;;5.13;2.33;;;14.20;99.90;;;;;;5011085;28;20206;-57
2022/06/03 03:56:56;;;;;;;5.43;2.30;;;14.40;99.90;;;;;;4924183;29;20226;-58
2022/06/03 04:00:01;;;;;;;3.27;2.57;;;14.50;99.90;;;;;;5013508;28;20223;-58
2022/06/03 04:03:14;;;;;;;2.30;2.10;;;14.60;99.90;;;;;;5008982;28;20207;-57
2022/06/03 04:06:21;;;;;;;3.37;2.30;;;14.60;99.90;;;;;;5013162;28;20718;-57
2022/06/03 04:09:20;;;;;;;6.60;2.50;;;14.80;99.90;;;;;;5013105;28;20240;-60
2022/06/03 04:12:31;;;;;;;2.40;2.00;;;14.80;99.90;;;;;;5012978;28;20218;-57
2022/06/03 04:15:45;;;;;;;3.03;2.30;;;14.80;99.90;;;;;;5013095;28;20226;-58
2022/06/03 04:18:51;;;;;;;3.27;2.33;;;15.00;99.90;;;;;;5013183;28;20242;-58
2022/06/03 04:21:51;;;;;;;3.70;3.00;;;15.00;99.90;;;;;;5012712;28;20210;-58
2022/06/03 04:24:45;;;;;;;3.10;2.20;;;15.10;99.90;;;;;;4981876;28;20589;-57
2022/06/03 04:27:51;;;;;;;2.60;2.30;;;15.10;99.90;;;;;;5003133;28;20217;-58
2022/06/03 04:30:46;;;;;;;4.07;2.73;;;15.20;99.90;;;;;;5012960;28;20206;-58
2022/06/03 04:33:49;;;;;;;4.23;2.53;;;15.20;99.90;;;;;;5012733;28;20257;-58
2022/06/03 04:36:55;;;;;;;4.13;2.63;;;15.30;99.90;;;;;;5010096;28;20226;-58
2022/06/03 04:40:05;;;;;;;6.47;3.47;;;15.40;99.90;;;;;;4990213;28;20309;-58
2022/06/03 04:43:36;;;;;;;3.03;2.20;;;15.50;99.90;;;;;;5003888;28;20207;-58
2022/06/03 04:46:35;;;;;;;6.97;2.70;;;15.60;99.90;;;;;;5013202;28;20289;-59
2022/06/03 04:49:52;;;;;;;2.80;2.20;;;15.70;99.90;;;;;;5013432;28;20203;-59
2022/06/03 04:52:52;;;;;;;3.87;2.47;;;15.90;99.90;;;;;;5013065;28;20219;-58
2022/06/03 04:56:08;;;;;;;2.60;2.40;;;16.10;99.90;;;;;;5013478;28;20259;-59
2022/06/03 04:59:12;;;;;;;2.40;2.20;;;16.70;99.90;;;;;;5012811;28;20214;-59
2022/06/03 05:02:18;;;;;;;5.93;2.20;;;18.00;99.90;;;;;;4973845;28;20217;-59
2022/06/03 05:05:20;;;;;;;2.25;2.05;;;19.70;99.90;;;;;;5013863;28;20217;-59
2022/06/03 05:08:24;;;;;;;2.72;1.90;;;20.70;99.90;;;;;;5013589;28;20210;-58
2022/06/03 05:11:29;;;;;;;2.50;2.13;;;21.80;99.90;;;;;;5013044;28;20650;-58
2022/06/03 05:14:46;;;;;;;2.38;1.98;;;23.60;99.90;;;;;;5015480;28;20210;-59
2022/06/03 05:17:43;;;;;;;2.25;1.85;;;25.20;98.00;;;;;;5018430;28;20241;-59
2022/06/03 05:20:28;;;;;;;3.85;1.92;;;27.00;94.20;;;;;;5017931;28;20287;-60
2022/06/03 05:23:21;;;;;;;5.38;1.75;;;28.50;89.60;;;;;;5016659;28;20214;-59
2022/06/03 05:26:21;;;;;;;4.50;2.05;;;29.70;80.10;;;;;;5004933;23;20222;-58
2022/06/03 05:29:26;;;;;;;3.40;1.98;;;30.60;73.60;;;;;;5042470;28;20204;-58
2022/06/03 05:32:20;;;;;;;3.15;1.77;;;30.40;70.40;;;;;;5055032;28;20209;-59
2022/06/03 05:35:20;;;;;;;4.13;1.90;;;30.20;69.20;;;;;;5055422;28;20237;-58
2022/06/03 05:38:00;;;;;;;3.72;1.92;;;30.40;69.20;;;;;;5035269;28;20677;-56
2022/06/03 05:40:37;;;;;;;2.28;2.00;;;31.30;65.70;;;;;;5034974;28;20606;-58
2022/06/03 05:43:42;;;;;;;2.78;1.92;;;32.00;63.70;;;;;;5035004;28;20206;-58
2022/06/03 05:46:18;;;;;;;3.03;2.00;;;32.70;61.80;;;;;;5017111;28;20609;-58
2022/06/03 05:49:18;;;;;;;4.05;1.70;;;33.50;59.80;;;;;;5034889;28;20700;-57
2022/06/03 05:52:05;;;;;;;3.40;1.80;;;33.50;58.80;;;;;;5023733;28;20673;-58
2022/06/03 05:54:41;;;;;;;4.82;2.00;;;33.70;57.50;;;;;;5035085;28;20209;-57
2022/06/03 05:57:24;;;;;;;2.50;1.98;;;34.10;56.70;;;;;;5034647;28;20284;-58
2022/06/03 06:00:09;;;;;;;10.13;2.60;;;34.90;55.10;;;;;;5034987;28;20653;-59
2022/06/03 06:02:41;;;;;;;4.07;2.00;;;35.70;53.20;;;;;;5034461;28;20582;-58
2022/06/03 06:05:17;;;;;;;4.32;1.80;;;36.40;51.00;;;;;;5034731;28;20573;-58
2022/06/03 06:07:53;;;;;;;2.20;1.80;;;36.20;51.00;;;;;;5035025;28;20210;-58
2022/06/03 06:10:33;;;;;;;3.55;1.83;;;36.20;50.30;;;;;;5035158;28;20263;-58
2022/06/03 06:13:21;;;;;;;4.85;1.88;;;36.00;50.20;;;;;;5034605;28;20580;-58
2022/06/03 06:16:03;;;;;;;3.88;1.88;;;35.60;50.50;;;;;;5034852;28;20234;-58
2022/06/03 06:18:44;;;;;;;3.97;2.08;;;35.20;51.10;;;;;;5034998;28;20210;-58
2022/06/03 06:21:30;;;;;;;2.58;1.73;;;35.10;51.10;;;;;;5034506;28;20602;-58
2022/06/03 06:24:11;;;;;;;2.45;1.90;;;35.10;51.00;;;;;;5034597;28;20217;-58
2022/06/03 06:26:57;;;;;;;5.88;2.10;;;35.30;50.60;;;;;;5033641;28;20229;-57
2022/06/03 06:29:45;;;;;;;2.15;1.85;;;35.70;50.10;;;;;;5034645;28;20293;-59
2022/06/03 06:32:39;;;;;;;2.33;1.90;;;36.10;49.30;;;;;;5034165;28;20202;-57
2022/06/03 06:35:31;;;;;;;5.20;2.05;;;36.30;49.30;;;;;;5034175;28;20210;-58
2022/06/03 06:38:07;;;;;;;2.80;1.80;;;36.50;49.00;;;;;;5031621;28;20210;-58
2022/06/03 06:40:48;;;;;;;3.90;2.30;;;36.50;48.70;;;;;;5034090;28;20280;-58
2022/06/03 06:43:33;;;;;;;3.17;1.98;;;36.30;49.20;;;;;;5033857;28;20671;-59
2022/06/03 06:46:08;;;;;;;2.15;1.80;;;36.30;49.00;;;;;;5033901;28;20226;-59
2022/06/03 06:48:46;;;;;;;2.70;2.10;;;36.20;49.30;;;;;;5034067;28;20268;-58
2022/06/03 06:51:49;;;;;;;3.42;2.20;;;36.00;49.70;;;;;;5033837;28;20213;-57
2022/06/03 06:54:24;;;;;;;4.10;2.10;;;36.10;50.10;;;;;;5033786;28;20590;-57
2022/06/03 06:56:58;;;;;;;4.47;2.58;;;36.70;48.80;;;;;;5033927;28;20226;-58
2022/06/03 06:59:31;;;;;;;5.15;2.05;;;37.00;48.20;;;;;;5033835;28;20257;-58
2022/06/03 07:02:04;;;;;;;4.63;1.90;;;36.30;49.10;;;;;;5033883;28;20210;-58
2022/06/03 07:04:35;;;;;;;5.18;1.90;;;35.40;50.60;;;;;;5034061;28;20297;-57
2022/06/03 07:07:13;;;;;;;2.72;2.20;;;35.10;51.00;;;;;;5033603;28;20581;-57
2022/06/03 07:09:50;;;;;;;2.80;2.03;;;35.20;50.90;;;;;;5033569;28;20198;-58
2022/06/03 07:12:21;;;;;;;3.40;2.10;;;35.40;50.60;;;;;;5033571;28;20209;-58
2022/06/03 07:14:58;;;;;;;3.05;2.10;;;35.20;51.10;;;;;;5033711;28;20643;-57
2022/06/03 07:20:37;;;;;;;2.75;2.17;;;35.70;50.70;;;;;;5033432;28;20233;-58
2022/06/03 07:23:11;;;;;;;3.08;1.95;;;36.10;49.90;;;;;;5033542;28;20217;-57
2022/06/03 07:25:43;;;;;;;4.13;2.08;;;36.40;49.70;;;;;;5033367;28;20283;-57
2022/06/03 07:28:27;;;;;;;4.18;2.20;;;36.90;48.90;;;;;;5033372;28;20206;-58
2022/06/03 07:30:58;;;;;;;2.88;2.00;;;37.40;48.30;;;;;;5033182;28;20236;-59
2022/06/03 07:33:41;;;;;;;2.95;1.70;;;38.10;47.60;;;;;;5033036;28;20268;-59
2022/06/03 07:36:14;;;;;;;3.35;1.95;;;39.20;46.40;;;;;;5033276;28;20597;-59
2022/06/03 07:38:47;;;;;;;2.53;1.77;;;39.90;45.40;;;;;;5033178;28;20800;-58
2022/06/03 07:41:20;;;;;;;3.40;1.70;;;40.30;44.70;;;;;;5032725;28;20665;-59
2022/06/03 07:43:54;;;;;;;2.50;1.80;;;40.60;44.10;;;;;;5032979;28;20368;-57
2022/06/03 07:46:26;;;;;;;2.00;1.80;;;40.90;43.70;;;;;;5033011;28;20237;-59
2022/06/03 07:48:53;;;;;;;2.88;2.10;;;41.20;43.20;;;;;;5032834;28;20206;-58
2022/06/03 07:51:26;;;;;;;2.92;1.70;;;41.70;42.50;;;;;;5032728;28;20202;-58
2022/06/03 07:54:00;;;;;;;3.85;1.90;;;42.20;42.00;;;;;;5032286;28;20217;-58
2022/06/03 07:56:30;;;;;;;2.63;1.70;;;42.40;41.80;;;;;;5032911;28;20229;-57
2022/06/03 07:59:00;;;;;;;1.98;1.60;;;42.70;41.40;;;;;;5032624;28;20209;-57
2022/06/03 08:01:29;;;;;;;2.17;1.85;;;43.00;40.60;;;;;;5032854;28;20229;-57
2022/06/03 08:03:56;;;;;;;3.40;1.83;;;42.30;41.60;;;;;;5032442;28;20381;-58
2022/06/03 08:06:30;;;;;;;2.72;1.77;;;41.80;41.80;;;;;;5032385;28;20237;-58
2022/06/03 08:11:44;;;;;;;4.03;2.00;;;42.10;41.70;;;;;;5032417;28;20672;-58
2022/06/03 08:14:30;;;;;;;3.97;1.70;;;41.90;41.60;;;;;;5033115;28;20290;-59
2022/06/03 08:16:57;;;;;;;2.40;1.55;;;42.20;41.30;;;;;;5032117;28;20226;-59
2022/06/03 08:19:27;;;;;;;1.97;1.70;;;42.40;41.00;;;;;;5027813;28;20511;-59
2022/06/03 08:21:58;;;;;;;2.80;1.83;;;42.60;41.50;;;;;;5010941;28;20575;-58
2022/06/03 08:24:28;;;;;;;3.22;1.80;;;42.80;40.40;;;;;;5011787;28;20855;-54
2022/06/03 08:26:58;;;;;;;2.58;1.67;;;42.60;40.40;;;;;;5012719;28;20262;-54
2022/06/03 08:29:35;;;;;;;3.35;1.60;;;42.60;40.40;;;;;;5012476;28;20210;-54
2022/06/03 08:32:07;;;;;;;2.20;1.65;;;42.00;41.40;;;;;;5011605;28;20209;-54
2022/06/03 08:34:39;;;;;;;2.50;1.92;;;41.70;41.70;;;;;;5011374;28;20221;-54
2022/06/03 08:37:09;;;;;;;3.78;1.95;;;41.60;42.00;;;;;;5011377;28;20255;-54
2022/06/03 08:39:40;;;;;;;2.13;1.60;;;41.00;42.60;;;;;;5011330;28;20209;-54
2022/06/03 08:42:22;;;;;;;1.95;1.75;;;40.00;43.70;;;;;;5011703;28;20229;-59
2022/06/03 08:45:11;;;;;;;2.92;1.90;;;39.50;44.30;;;;;;5011089;28;20298;-58
2022/06/03 08:47:41;;;;;;;3.95;1.95;;;38.90;44.80;;;;;;5011234;28;20257;-57
2022/06/03 08:50:14;;;;;;;3.55;1.85;;;37.60;46.60;;;;;;5010925;28;20226;-57
2022/06/03 08:52:49;;;;;;;2.17;1.70;;;36.10;48.40;;;;;;5011204;28;20297;-57
2022/06/03 08:55:31;;;;;;;2.33;1.92;;;34.70;50.20;;;;;;5011181;28;20317;-57
2022/06/03 08:58:04;;;;;;;2.00;1.90;;;33.10;52.30;;;;;;5010866;28;20210;-57
2022/06/03 09:00:51;;;;;;;2.08;1.63;;;31.90;55.00;;;;;;5010945;28;20211;-61
2022/06/03 09:03:21;;;;;;;2.30;2.10;;;30.90;57.50;;;;;;5010931;28;20211;-56
2022/06/03 09:05:52;;;;;;;4.43;2.25;;;30.10;58.50;;;;;;5010848;28;20231;-56
2022/06/03 09:08:27;;;;;;;3.83;2.08;;;29.70;60.10;;;;;;5011110;28;20214;-57
2022/06/03 09:11:00;;;;;;;2.42;2.00;;;29.20;61.10;;;;;;5010341;28;20232;-56
2022/06/03 09:13:34;;;;;;;4.05;2.05;;;29.00;63.60;;;;;;5010690;28;20213;-57
2022/06/03 09:16:06;;;;;;;2.13;1.77;;;28.80;64.00;;;;;;5010699;28;20547;-59
2022/06/03 09:18:37;;;;;;;2.45;1.70;;;28.90;64.10;;;;;;5010949;28;20760;-59
2022/06/03 09:21:07;;;;;;;3.20;1.95;;;28.80;63.20;;;;;;5010395;28;20229;-58
2022/06/03 09:23:39;;;;;;;4.13;1.83;;;28.60;63.80;;;;;;5009933;28;20297;-58
2022/06/03 09:26:10;;;;;;;2.72;1.52;;;28.40;65.20;;;;;;5010686;28;20650;-58
2022/06/03 09:28:37;;;;;;;1.90;1.67;;;28.30;65.90;;;;;;5010655;28;20687;-58
2022/06/03 09:31:09;;;;;;;3.72;2.28;;;28.20;66.20;;;;;;5010654;28;20207;-57
2022/06/03 09:33:37;;;;;;;2.20;1.75;;;28.20;65.50;;;;;;5010504;28;20242;-58
2022/06/03 09:36:13;;;;;;;2.13;1.80;;;28.20;66.60;;;;;;5010717;28;20226;-58
2022/06/03 09:38:43;;;;;;;2.58;1.90;;;28.30;67.20;;;;;;5011178;28;20207;-59
2022/06/03 09:41:10;;;;;;;2.35;1.52;;;28.40;66.00;;;;;;5010744;28;20223;-60
2022/06/03 09:43:40;;;;;;;3.38;1.60;;;28.50;65.30;;;;;;5010383;28;20597;-56
2022/06/03 09:46:12;;;;;;;2.08;1.50;;;28.70;64.00;;;;;;5010400;28;20628;-57
2022/06/03 09:48:41;;;;;;;1.90;1.60;;;28.80;64.60;;;;;;5010623;28;20230;-58
2022/06/03 09:51:11;;;;;;;2.60;1.85;;;28.80;64.90;;;;;;5010557;28;20261;-59
2022/06/03 09:53:42;;;;;;;1.88;1.73;;;28.90;65.60;;;;;;5010483;28;20227;-57
2022/06/03 09:56:18;;;;;;;4.80;1.77;;;28.80;66.60;;;;;;5010742;28;20239;-61
2022/06/03 09:58:47;;;;;;;3.15;1.70;;;28.90;65.70;;;;;;5010148;28;20206;-60
2022/06/03 10:01:15;;;;;;;2.47;1.75;;;29.20;64.40;;;;;;5012504;28;20235;-58
2022/06/03 10:03:45;;;;;;;1.92;1.65;;;29.60;63.40;;;;;;5013725;28;20202;-59
2022/06/03 10:06:42;;;;;;;3.13;2.38;;;29.80;63.30;;;;;;5013863;28;20226;-58
2022/06/03 10:14:28;;;;;;;1.90;1.70;;;30.80;62.40;;;;;;5014426;28;20238;-58
2022/06/03 10:16:56;;;;;;;2.15;1.70;;;30.80;61.00;;;;;;5013921;28;20765;-62
2022/06/03 10:19:23;;;;;;;2.15;1.60;;;30.70;61.40;;;;;;5013904;28;20215;-61
2022/06/03 10:21:52;;;;;;;2.72;1.77;;;30.60;61.70;;;;;;5013759;28;20235;-58
2022/06/03 10:24:22;;;;;;;3.45;1.98;;;30.70;61.60;;;;;;5013451;28;20658;-57
2022/06/03 10:26:51;;;;;;;3.17;1.48;;;31.10;61.20;;;;;;5013481;28;20325;-59
2022/06/03 10:29:19;;;;;;;1.90;1.50;;;31.80;58.90;;;;;;5014454;28;20207;-63
2022/06/03 10:31:52;;;;;;;1.73;1.60;;;32.30;58.40;;;;;;5014723;28;20559;-58
2022/06/03 10:34:24;;;;;;;3.80;1.42;;;32.90;57.60;;;;;;5014719;28;20580;-56
2022/06/03 10:36:54;;;;;;;2.15;1.70;;;33.60;56.70;;;;;;5014508;28;20265;-57
2022/06/03 10:39:27;;;;;;;2.13;1.60;;;34.00;55.40;;;;;;5014740;28;20217;-56
2022/06/03 10:41:56;;;;;;;1.60;1.38;;;34.20;55.10;;;;;;5014428;28;20227;-57
2022/06/03 10:44:26;;;;;;;3.53;1.70;;;34.40;53.60;;;;;;5014883;28;20234;-56
2022/06/03 10:46:54;;;;;;;3.03;1.70;;;34.60;52.80;;;;;;5014582;28;20231;-56
2022/06/03 10:49:24;;;;;;;4.32;1.65;;;34.60;53.10;;;;;;5014621;28;20214;-56
2022/06/03 11:02:54;;;;;;;3.05;1.55;;;34.80;52.90;;;;;;5013727;28;20333;-56
2022/06/03 11:05:25;;;;;;;4.43;2.33;;;34.50;52.80;;;;;;5013532;28;20304;-56
2022/06/03 11:08:00;;;;;;;3.35;1.90;;;34.20;53.40;;;;;;5014157;28;20582;-56
2022/06/03 11:10:38;;;;;;;2.10;1.90;;;34.10;53.50;;;;;;5013960;28;20206;-56
2022/06/03 11:13:07;;;;;;;5.68;1.70;;;34.20;54.10;;;;;;5013345;28;20214;-56
2022/06/03 11:15:36;;;;;;;2.15;1.60;;;34.40;52.90;;;;;;5013468;28;20317;-56
2022/06/03 11:18:15;;;;;;;2.58;1.60;;;34.80;52.90;;;;;;5013908;28;20211;-56
2022/06/03 11:20:44;;;;;;;1.95;1.70;;;34.90;52.30;;;;;;5013948;28;20211;-55
2022/06/03 11:23:13;;;;;;;1.95;1.60;;;34.70;52.30;;;;;;5013072;28;20667;-56
2022/06/03 11:25:42;;;;;;;1.63;1.40;;;34.40;52.30;;;;;;5014034;28;20234;-56
2022/06/03 11:28:14;;;;;;;2.92;1.35;;;34.10;52.50;;;;;;5013346;28;20218;-56
2022/06/03 11:30:46;;;;;;;2.63;1.73;;;33.80;53.00;;;;;;5013449;28;20671;-56
2022/06/03 11:33:19;;;;;;;5.85;1.80;;;33.50;53.80;;;;;;5013336;28;20241;-55
2022/06/03 11:35:52;;;;;;;1.75;1.50;;;33.10;54.20;;;;;;5013168;28;20736;-55
2022/06/03 11:38:25;;;;;;;3.53;2.10;;;32.80;55.10;;;;;;5013149;28;20207;-55
2022/06/03 11:40:55;;;;;;;4.10;2.97;;;32.40;56.50;;;;;;5013044;28;20321;-55
2022/06/03 11:43:34;;;;;;;3.08;1.60;;;32.10;55.90;;;;;;5013470;28;20285;-56
2022/06/03 11:46:05;;;;;;;2.83;1.75;;;31.80;56.30;;;;;;5014179;28;20227;-57
2022/06/03 11:48:35;;;;;;;2.53;1.55;;;31.60;56.70;;;;;;5013966;28;20590;-58
2022/06/03 11:51:05;;;;;;;5.75;2.00;;;31.20;57.20;;;;;;5013498;28;20230;-56
2022/06/03 11:53:35;;;;;;;2.30;1.80;;;31.00;60.50;;;;;;5013179;28;20210;-56
2022/06/03 11:56:05;;;;;;;3.50;2.80;;;30.80;63.50;;;;;;5013550;28;20294;-56
2022/06/03 11:58:45;;;;;;;3.92;2.28;;;30.60;65.00;;;;;;5013748;28;20725;-56
2022/06/03 12:01:18;;;;;;;4.05;2.17;;;30.50;67.80;;;;;;5022131;28;20261;-61
2022/06/03 12:03:54;;;;;;;7.45;2.70;;;30.40;72.10;;;;;;5031842;28;20214;-61
2022/06/03 12:06:26;;;;;;;6.07;2.30;;;30.30;76.00;;;;;;5031816;28;20721;-59
2022/06/03 12:09:00;;;;;;;11.98;2.95;;;30.10;78.60;;;;;;5031848;28;20215;-62
2022/06/03 12:14:28;;;;;;;7.10;3.05;;;29.70;83.00;;;;;;5031581;28;20284;-62
2022/06/03 12:16:58;;;;;;;7.38;2.85;;;29.40;86.90;;;;;;5031343;28;20232;-60
2022/06/03 12:19:38;;;;;;;7.45;3.30;;;29.20;88.10;;;;;;5031285;28;20269;-57
2022/06/03 12:22:36;;;;;;;5.50;2.88;;;29.10;87.90;;;;;;5031044;28;20218;-58
2022/06/03 12:25:05;;;;;;;5.00;2.55;;;28.90;89.60;;;;;;5026330;28;20206;-61
2022/06/03 12:27:35;;;;;;;7.25;3.10;;;28.60;90.20;;;;;;5031364;28;20206;-61
2022/06/03 12:30:32;;;;;;;6.13;2.97;;;28.40;94.00;;;;;;5031356;28;20207;-61
2022/06/03 12:33:03;;;;;;;4.53;2.65;;;28.80;94.10;;;;;;5030191;28;20206;-64
2022/06/03 12:36:05;;;;;;;6.80;2.50;;;29.10;92.60;;;;;;5010754;28;20314;-60
2022/06/03 12:38:43;;;;;;;4.20;2.78;;;29.50;93.20;;;;;;4966495;28;20291;-65
2022/06/03 12:41:11;;;;;;;5.35;2.83;;;29.70;92.10;;;;;;5006259;28;20285;-61
2022/06/03 12:43:58;;;;;;;6.85;2.92;;;29.90;92.10;;;;;;5010855;28;20207;-63
2022/06/03 12:46:43;;;;;;;5.70;2.92;;;30.00;92.10;;;;;;5011390;28;20269;-64
2022/06/03 12:49:51;;;;;;;4.88;2.92;;;30.30;92.50;;;;;;5010695;28;20207;-61
2022/06/03 12:52:37;;;;;;;6.57;3.00;;;30.40;92.00;;;;;;5010923;28;20686;-57
2022/06/03 12:55:07;;;;;;;9.70;4.18;;;30.70;90.90;;;;;;5011127;28;20679;-59
2022/06/03 12:57:43;;;;;;;4.40;3.03;;;30.90;91.50;;;;;;5010706;28;20553;-58
2022/06/03 13:00:15;;;;;;;6.70;3.15;;;31.00;91.60;;;;;;5010995;28;20221;-61
2022/06/03 13:02:49;;;;;;;12.90;7.30;;;31.30;92.10;;;;;;5011101;28;20227;-62
2022/06/03 13:05:36;;;;;;;5.60;4.13;;;31.60;91.50;;;;;;5011029;28;20237;-58
2022/06/03 13:08:07;;;;;;;4.68;2.90;;;31.90;89.40;;;;;;5010478;28;20645;-62
2022/06/03 13:10:56;;;;;;;3.45;2.88;;;32.00;88.00;;;;;;5010863;28;20214;-63
2022/06/03 13:13:38;;;;;;;4.57;2.90;;;32.10;88.10;;;;;;5010754;28;20210;-64
2022/06/03 13:16:42;;;;;;;5.60;2.97;;;32.10;87.70;;;;;;5010960;28;20318;-61
2022/06/03 13:19:56;;;;;;;6.95;3.10;;;32.00;88.60;;;;;;5011161;28;20214;-59
2022/06/03 13:22:51;;;;;;;6.15;3.00;;;31.90;89.50;;;;;;5010366;28;20601;-61
2022/06/03 13:25:33;;;;;;;5.30;3.08;;;31.40;90.20;;;;;;5010918;28;20245;-64
2022/06/03 13:28:14;;;;;;;11.95;3.35;;;31.00;91.00;;;;;;5010470;28;20207;-62
2022/06/03 13:30:41;;;;;;;4.60;2.75;;;30.70;92.00;;;;;;5009200;28;20249;-62
2022/06/03 13:33:18;;;;;;;6.22;3.33;;;30.60;91.60;;;;;;5009790;28;20215;-63
2022/06/03 13:36:02;;;;;;;7.38;3.42;;;30.70;91.50;;;;;;5013941;28;20674;-62
2022/06/03 13:38:44;;;;;;;3.88;2.83;;;30.80;92.00;;;;;;5014932;28;20268;-61
2022/06/03 13:44:19;;;;;;;9.15;3.75;;;30.60;93.20;;;;;;5014607;28;20662;-59
2022/06/03 13:46:49;;;;;;;4.82;3.17;;;30.20;93.50;;;;;;5014090;28;20645;-58
2022/06/03 13:49:24;;;;;;;7.05;3.70;;;30.00;92.90;;;;;;5014700;28;20207;-61
2022/06/03 13:51:58;;;;;;;8.25;5.13;;;29.90;93.50;;;;;;5014540;28;20593;-60
2022/06/03 13:54:34;;;;;;;4.57;3.55;;;29.70;93.70;;;;;;5014594;28;20203;-62
2022/06/03 13:57:24;;;;;;;6.07;3.47;;;29.50;93.90;;;;;;5014181;28;20293;-60
2022/06/03 13:59:50;;;;;;;4.72;3.60;;;29.30;94.20;;;;;;5009720;28;20544;-61
2022/06/03 14:02:26;;;;;;;5.32;3.15;;;29.20;95.00;;;;;;5014058;28;20227;-63
2022/06/03 14:05:00;;;;;;;6.00;3.50;;;29.20;95.30;;;;;;5014317;28;20225;-62
2022/06/03 14:07:36;;;;;;;6.57;3.30;;;29.10;96.00;;;;;;5014147;28;20257;-59
2022/06/03 14:10:15;;;;;;;5.63;3.25;;;29.00;95.90;;;;;;5013542;28;20293;-57
2022/06/03 14:12:59;;;;;;;4.97;3.70;;;29.00;95.60;;;;;;5014836;28;20663;-58
2022/06/03 14:15:32;;;;;;;7.55;3.92;;;29.00;95.20;;;;;;5014888;28;20223;-59
2022/06/03 14:18:00;;;;;;;6.72;4.50;;;28.90;95.40;;;;;;5014866;28;20642;-58
2022/06/03 14:20:32;;;;;;;9.45;3.47;;;28.80;95.50;;;;;;5014893;28;20203;-58
2022/06/03 14:23:11;;;;;;;5.85;3.30;;;28.70;95.40;;;;;;5015091;28;20231;-59
2022/06/03 14:25:50;;;;;;;5.00;3.03;;;28.70;94.70;;;;;;5014826;28;20238;-60
2022/06/03 14:28:25;;;;;;;5.03;3.13;;;28.70;94.80;;;;;;5014849;28;20214;-60
2022/06/03 14:30:59;;;;;;;7.30;2.97;;;28.70;94.50;;;;;;5014527;28;20264;-60
2022/06/03 14:33:29;;;;;;;6.50;3.30;;;28.70;94.40;;;;;;5014094;28;20576;-60
2022/06/03 14:35:58;;;;;;;8.48;3.08;;;28.70;94.20;;;;;;5014525;28;20231;-60
2022/06/03 14:38:34;;;;;;;3.35;2.70;;;28.70;94.40;;;;;;5014671;28;20218;-59